sensor_id;sensor_type;location;lat;lon;timestamp;P1;durP1;ratioP1;P2;durP2;ratioP2
18612;SDS011;9436;52.152;21.032;2023-02-26T00:00:17;3.30;;;2.97;;
18612;SDS011;9436;52.152;21.032;2023-02-26T00:02:46;4.03;;;3.00;;
18612;SDS011;9436;52.152;21.032;2023-02-26T00:05:14;3.13;;;2.83;;
18612;SDS011;9436;52.152;21.032;2023-02-26T00:07:41;3.40;;;3.10;;
18612;SDS011;9436;52.152;21.032;2023-02-26T00:10:09;3.63;;;3.20;;
18612;SDS011;9436;52.152;21.032;2023-02-26T00:12:38;3.83;;;3.43;;
18612;SDS011;9436;52.152;21.032;2023-02-26T00:15:06;3.40;;;3.10;;
18612;SDS011;9436;52.152;21.032;2023-02-26T00:17:40;3.70;;;3.30;;
18612;SDS011;9436;52.152;21.032;2023-02-26T00:20:12;3.30;;;3.00;;
18612;SDS011;9436;52.152;21.032;2023-02-26T00:22:41;3.33;;;2.70;;
18612;SDS011;9436;52.152;21.032;2023-02-26T00:25:08;3.57;;;2.90;;
18612;SDS011;9436;52.152;21.032;2023-02-26T00:27:36;2.80;;;2.50;;
18612;SDS011;9436;52.152;21.032;2023-02-26T00:30:04;3.17;;;2.87;;
18612;SDS011;9436;52.152;21.032;2023-02-26T00:32:34;3.57;;;2.87;;
18612;SDS011;9436;52.152;21.032;2023-02-26T00:35:03;3.03;;;2.73;;
18612;SDS011;9436;52.152;21.032;2023-02-26T00:37:37;2.83;;;2.60;;
18612;SDS011;9436;52.152;21.032;2023-02-26T00:40:14;3.30;;;2.70;;
18612;SDS011;9436;52.152;21.032;2023-02-26T00:42:46;2.80;;;2.60;;
18612;SDS011;9436;52.152;21.032;2023-02-26T00:45:15;2.97;;;2.47;;
18612;SDS011;9436;52.152;21.032;2023-02-26T00:47:44;3.57;;;3.03;;
18612;SDS011;9436;52.152;21.032;2023-02-26T00:50:17;3.60;;;2.77;;
18612;SDS011;9436;52.152;21.032;2023-02-26T00:52:52;3.07;;;2.70;;
18612;SDS011;9436;52.152;21.032;2023-02-26T00:55:27;3.13;;;2.70;;
18612;SDS011;9436;52.152;21.032;2023-02-26T00:57:54;3.93;;;2.87;;
18612;SDS011;9436;52.152;21.032;2023-02-26T01:00:21;3.17;;;2.80;;
18612;SDS011;9436;52.152;21.032;2023-02-26T01:02:48;2.93;;;2.73;;
18612;SDS011;9436;52.152;21.032;2023-02-26T01:05:16;3.07;;;2.77;;
18612;SDS011;9436;52.152;21.032;2023-02-26T01:07:45;3.33;;;3.03;;
18612;SDS011;9436;52.152;21.032;2023-02-26T01:10:20;3.00;;;2.70;;
18612;SDS011;9436;52.152;21.032;2023-02-26T01:12:48;2.63;;;2.43;;
18612;SDS011;9436;52.152;21.032;2023-02-26T01:15:15;3.20;;;2.90;;
18612;SDS011;9436;52.152;21.032;2023-02-26T01:17:44;2.73;;;2.50;;
18612;SDS011;9436;52.152;21.032;2023-02-26T01:20:17;3.47;;;2.77;;
18612;SDS011;9436;52.152;21.032;2023-02-26T01:22:47;2.80;;;2.57;;
18612;SDS011;9436;52.152;21.032;2023-02-26T01:25:22;3.57;;;2.97;;
18612;SDS011;9436;52.152;21.032;2023-02-26T01:27:52;4.17;;;2.20;;
18612;SDS011;9436;52.152;21.032;2023-02-26T01:30:21;2.90;;;2.30;;
18612;SDS011;9436;52.152;21.032;2023-02-26T01:32:51;2.50;;;2.30;;
18612;SDS011;9436;52.152;21.032;2023-02-26T01:35:28;2.87;;;2.57;;
18612;SDS011;9436;52.152;21.032;2023-02-26T01:38:06;2.90;;;2.60;;
18612;SDS011;9436;52.152;21.032;2023-02-26T01:43:50;2.67;;;2.47;;
18612;SDS011;9436;52.152;21.032;2023-02-26T01:46:27;3.00;;;2.70;;
18612;SDS011;9436;52.152;21.032;2023-02-26T01:48:59;3.50;;;3.00;;
18612;SDS011;9436;52.152;21.032;2023-02-26T01:54:20;3.20;;;2.90;;
18612;SDS011;9436;52.152;21.032;2023-02-26T01:56:51;3.87;;;3.10;;
18612;SDS011;9436;52.152;21.032;2023-02-26T01:59:22;2.90;;;2.60;;
18612;SDS011;9436;52.152;21.032;2023-02-26T02:01:51;3.00;;;2.70;;
18612;SDS011;9436;52.152;21.032;2023-02-26T02:04:19;3.97;;;3.20;;
18612;SDS011;9436;52.152;21.032;2023-02-26T02:06:49;3.90;;;3.20;;
18612;SDS011;9436;52.152;21.032;2023-02-26T02:09:16;3.77;;;3.20;;
18612;SDS011;9436;52.152;21.032;2023-02-26T02:11:58;3.50;;;3.20;;
18612;SDS011;9436;52.152;21.032;2023-02-26T02:14:36;3.77;;;3.30;;
18612;SDS011;9436;52.152;21.032;2023-02-26T02:17:12;3.40;;;3.10;;
18612;SDS011;9436;52.152;21.032;2023-02-26T02:19:53;3.60;;;3.27;;
18612;SDS011;9436;52.152;21.032;2023-02-26T02:22:39;3.47;;;3.10;;
18612;SDS011;9436;52.152;21.032;2023-02-26T02:28:34;3.30;;;3.00;;
18612;SDS011;9436;52.152;21.032;2023-02-26T02:31:12;3.67;;;3.27;;
18612;SDS011;9436;52.152;21.032;2023-02-26T02:33:46;3.97;;;3.57;;
18612;SDS011;9436;52.152;21.032;2023-02-26T02:36:18;3.67;;;3.27;;
18612;SDS011;9436;52.152;21.032;2023-02-26T02:38:50;3.50;;;3.20;;
18612;SDS011;9436;52.152;21.032;2023-02-26T02:41:23;4.10;;;3.20;;
18612;SDS011;9436;52.152;21.032;2023-02-26T02:43:55;4.00;;;3.40;;
18612;SDS011;9436;52.152;21.032;2023-02-26T02:46:27;3.60;;;3.30;;
18612;SDS011;9436;52.152;21.032;2023-02-26T02:48:59;3.50;;;3.20;;
18612;SDS011;9436;52.152;21.032;2023-02-26T02:51:28;3.30;;;3.00;;
18612;SDS011;9436;52.152;21.032;2023-02-26T02:54:02;4.20;;;3.80;;
18612;SDS011;9436;52.152;21.032;2023-02-26T02:56:34;3.60;;;3.30;;
18612;SDS011;9436;52.152;21.032;2023-02-26T02:59:05;4.10;;;3.70;;
18612;SDS011;9436;52.152;21.032;2023-02-26T03:01:42;3.70;;;3.23;;
18612;SDS011;9436;52.152;21.032;2023-02-26T03:04:11;3.70;;;3.40;;
18612;SDS011;9436;52.152;21.032;2023-02-26T03:06:40;4.30;;;3.30;;
18612;SDS011;9436;52.152;21.032;2023-02-26T03:09:11;3.80;;;3.50;;
18612;SDS011;9436;52.152;21.032;2023-02-26T03:11:38;3.57;;;3.27;;
18612;SDS011;9436;52.152;21.032;2023-02-26T03:14:05;3.83;;;3.47;;
18612;SDS011;9436;52.152;21.032;2023-02-26T03:16:38;3.30;;;3.00;;
18612;SDS011;9436;52.152;21.032;2023-02-26T03:19:21;3.37;;;3.00;;
18612;SDS011;9436;52.152;21.032;2023-02-26T03:21:56;3.90;;;3.50;;
18612;SDS011;9436;52.152;21.032;2023-02-26T03:24:28;3.80;;;3.30;;
18612;SDS011;9436;52.152;21.032;2023-02-26T03:27:02;3.97;;;3.53;;
18612;SDS011;9436;52.152;21.032;2023-02-26T03:29:40;3.17;;;2.87;;
18612;SDS011;9436;52.152;21.032;2023-02-26T03:32:16;3.47;;;3.17;;
18612;SDS011;9436;52.152;21.032;2023-02-26T03:34:49;3.67;;;3.37;;
18612;SDS011;9436;52.152;21.032;2023-02-26T03:37:22;3.10;;;2.80;;
18612;SDS011;9436;52.152;21.032;2023-02-26T03:39:53;4.13;;;3.57;;
18612;SDS011;9436;52.152;21.032;2023-02-26T03:42:24;3.50;;;3.20;;
18612;SDS011;9436;52.152;21.032;2023-02-26T03:44:56;3.50;;;3.20;;
18612;SDS011;9436;52.152;21.032;2023-02-26T03:47:27;3.63;;;3.33;;
18612;SDS011;9436;52.152;21.032;2023-02-26T03:49:57;3.50;;;3.20;;
18612;SDS011;9436;52.152;21.032;2023-02-26T03:52:28;3.30;;;2.97;;
18612;SDS011;9436;52.152;21.032;2023-02-26T03:54:58;3.10;;;2.70;;
18612;SDS011;9436;52.152;21.032;2023-02-26T03:57:29;3.30;;;3.00;;
18612;SDS011;9436;52.152;21.032;2023-02-26T03:59:56;3.27;;;2.50;;
18612;SDS011;9436;52.152;21.032;2023-02-26T04:02:24;3.00;;;2.63;;
18612;SDS011;9436;52.152;21.032;2023-02-26T04:04:59;3.40;;;2.80;;
18612;SDS011;9436;52.152;21.032;2023-02-26T04:07:32;3.23;;;2.93;;
18612;SDS011;9436;52.152;21.032;2023-02-26T04:09:59;2.80;;;2.50;;
18612;SDS011;9436;52.152;21.032;2023-02-26T04:12:26;3.17;;;2.87;;
18612;SDS011;9436;52.152;21.032;2023-02-26T04:14:54;2.77;;;2.50;;
18612;SDS011;9436;52.152;21.032;2023-02-26T04:17:22;2.83;;;2.57;;
18612;SDS011;9436;52.152;21.032;2023-02-26T04:19:51;2.97;;;2.67;;
18612;SDS011;9436;52.152;21.032;2023-02-26T04:22:18;3.17;;;2.83;;
18612;SDS011;9436;52.152;21.032;2023-02-26T04:24:45;3.30;;;2.50;;
18612;SDS011;9436;52.152;21.032;2023-02-26T04:27:12;2.60;;;2.40;;
18612;SDS011;9436;52.152;21.032;2023-02-26T04:29:39;3.00;;;2.70;;
18612;SDS011;9436;52.152;21.032;2023-02-26T04:32:06;3.40;;;2.10;;
18612;SDS011;9436;52.152;21.032;2023-02-26T04:34:33;2.70;;;2.37;;
18612;SDS011;9436;52.152;21.032;2023-02-26T04:37:02;3.23;;;2.50;;
18612;SDS011;9436;52.152;21.032;2023-02-26T04:39:29;2.90;;;2.60;;
18612;SDS011;9436;52.152;21.032;2023-02-26T04:41:56;3.07;;;2.77;;
18612;SDS011;9436;52.152;21.032;2023-02-26T04:44:23;3.53;;;2.70;;
18612;SDS011;9436;52.152;21.032;2023-02-26T04:46:50;2.93;;;2.53;;
18612;SDS011;9436;52.152;21.032;2023-02-26T04:49:17;2.80;;;2.50;;
18612;SDS011;9436;52.152;21.032;2023-02-26T04:51:44;2.90;;;2.70;;
18612;SDS011;9436;52.152;21.032;2023-02-26T04:54:12;3.03;;;2.40;;
18612;SDS011;9436;52.152;21.032;2023-02-26T04:56:39;2.40;;;2.20;;
18612;SDS011;9436;52.152;21.032;2023-02-26T04:59:07;1.87;;;1.77;;
18612;SDS011;9436;52.152;21.032;2023-02-26T05:01:34;2.30;;;2.10;;
18612;SDS011;9436;52.152;21.032;2023-02-26T05:04:01;2.30;;;2.10;;
18612;SDS011;9436;52.152;21.032;2023-02-26T05:06:28;2.40;;;2.20;;
18612;SDS011;9436;52.152;21.032;2023-02-26T05:08:55;2.30;;;2.10;;
18612;SDS011;9436;52.152;21.032;2023-02-26T05:11:24;2.23;;;2.03;;
18612;SDS011;9436;52.152;21.032;2023-02-26T05:13:51;2.50;;;2.30;;
18612;SDS011;9436;52.152;21.032;2023-02-26T05:16:18;2.40;;;2.20;;
18612;SDS011;9436;52.152;21.032;2023-02-26T05:18:45;2.30;;;2.10;;
18612;SDS011;9436;52.152;21.032;2023-02-26T05:21:12;2.13;;;1.93;;
18612;SDS011;9436;52.152;21.032;2023-02-26T05:23:39;2.83;;;2.20;;
18612;SDS011;9436;52.152;21.032;2023-02-26T05:26:06;3.10;;;2.27;;
18612;SDS011;9436;52.152;21.032;2023-02-26T05:28:35;2.57;;;2.03;;
18612;SDS011;9436;52.152;21.032;2023-02-26T05:31:02;3.63;;;1.90;;
18612;SDS011;9436;52.152;21.032;2023-02-26T05:33:29;2.30;;;2.10;;
18612;SDS011;9436;52.152;21.032;2023-02-26T05:35:56;2.47;;;2.13;;
18612;SDS011;9436;52.152;21.032;2023-02-26T05:38:24;3.70;;;2.60;;
18612;SDS011;9436;52.152;21.032;2023-02-26T05:40:54;2.40;;;2.20;;
18612;SDS011;9436;52.152;21.032;2023-02-26T05:43:22;2.40;;;2.20;;
18612;SDS011;9436;52.152;21.032;2023-02-26T05:45:50;3.00;;;2.30;;
18612;SDS011;9436;52.152;21.032;2023-02-26T05:48:18;3.33;;;2.67;;
18612;SDS011;9436;52.152;21.032;2023-02-26T05:50:45;2.53;;;2.33;;
18612;SDS011;9436;52.152;21.032;2023-02-26T05:53:13;2.83;;;2.43;;
18612;SDS011;9436;52.152;21.032;2023-02-26T05:55:41;3.07;;;2.77;;
18612;SDS011;9436;52.152;21.032;2023-02-26T05:58:08;3.00;;;2.60;;
18612;SDS011;9436;52.152;21.032;2023-02-26T06:00:35;2.83;;;2.63;;
18612;SDS011;9436;52.152;21.032;2023-02-26T06:03:04;3.10;;;2.80;;
18612;SDS011;9436;52.152;21.032;2023-02-26T06:05:31;3.30;;;2.73;;
18612;SDS011;9436;52.152;21.032;2023-02-26T06:08:00;2.60;;;2.40;;
18612;SDS011;9436;52.152;21.032;2023-02-26T06:10:27;3.20;;;2.90;;
18612;SDS011;9436;52.152;21.032;2023-02-26T06:12:54;2.67;;;2.20;;
18612;SDS011;9436;52.152;21.032;2023-02-26T06:15:22;3.70;;;2.50;;
18612;SDS011;9436;52.152;21.032;2023-02-26T06:17:49;2.47;;;2.00;;
18612;SDS011;9436;52.152;21.032;2023-02-26T06:20:18;1.90;;;1.80;;
18612;SDS011;9436;52.152;21.032;2023-02-26T06:22:45;3.10;;;2.30;;
18612;SDS011;9436;52.152;21.032;2023-02-26T06:25:12;2.67;;;2.03;;
18612;SDS011;9436;52.152;21.032;2023-02-26T06:27:39;2.63;;;2.27;;
18612;SDS011;9436;52.152;21.032;2023-02-26T06:30:07;2.17;;;1.97;;
18612;SDS011;9436;52.152;21.032;2023-02-26T06:32:34;1.90;;;1.60;;
18612;SDS011;9436;52.152;21.032;2023-02-26T06:35:02;2.10;;;1.80;;
18612;SDS011;9436;52.152;21.032;2023-02-26T06:37:31;2.07;;;1.87;;
18612;SDS011;9436;52.152;21.032;2023-02-26T06:39:58;2.93;;;2.07;;
18612;SDS011;9436;52.152;21.032;2023-02-26T06:42:25;2.10;;;1.90;;
18612;SDS011;9436;52.152;21.032;2023-02-26T06:44:52;2.37;;;2.03;;
18612;SDS011;9436;52.152;21.032;2023-02-26T06:47:21;2.47;;;2.10;;
18612;SDS011;9436;52.152;21.032;2023-02-26T06:49:48;2.63;;;2.00;;
18612;SDS011;9436;52.152;21.032;2023-02-26T06:52:15;2.40;;;2.03;;
18612;SDS011;9436;52.152;21.032;2023-02-26T06:54:44;2.77;;;2.40;;
18612;SDS011;9436;52.152;21.032;2023-02-26T06:57:11;2.37;;;2.10;;
18612;SDS011;9436;52.152;21.032;2023-02-26T06:59:38;3.00;;;2.17;;
18612;SDS011;9436;52.152;21.032;2023-02-26T07:02:05;2.27;;;1.90;;
18612;SDS011;9436;52.152;21.032;2023-02-26T07:04:32;2.07;;;1.87;;
18612;SDS011;9436;52.152;21.032;2023-02-26T07:06:59;2.37;;;1.70;;
18612;SDS011;9436;52.152;21.032;2023-02-26T07:09:26;2.50;;;2.30;;
18612;SDS011;9436;52.152;21.032;2023-02-26T07:11:55;2.20;;;2.00;;
18612;SDS011;9436;52.152;21.032;2023-02-26T07:14:22;2.47;;;2.00;;
18612;SDS011;9436;52.152;21.032;2023-02-26T07:16:49;2.30;;;1.90;;
18612;SDS011;9436;52.152;21.032;2023-02-26T07:19:16;1.93;;;1.70;;
18612;SDS011;9436;52.152;21.032;2023-02-26T07:21:43;2.90;;;1.93;;
18612;SDS011;9436;52.152;21.032;2023-02-26T07:24:11;1.70;;;1.60;;
18612;SDS011;9436;52.152;21.032;2023-02-26T07:26:38;3.30;;;1.80;;
18612;SDS011;9436;52.152;21.032;2023-02-26T07:29:07;1.73;;;1.63;;
18612;SDS011;9436;52.152;21.032;2023-02-26T07:31:34;1.83;;;1.70;;
18612;SDS011;9436;52.152;21.032;2023-02-26T07:34:01;1.70;;;1.60;;
18612;SDS011;9436;52.152;21.032;2023-02-26T07:36:28;1.90;;;1.70;;
18612;SDS011;9436;52.152;21.032;2023-02-26T07:38:55;2.10;;;1.90;;
18612;SDS011;9436;52.152;21.032;2023-02-26T07:41:22;2.80;;;1.70;;
18612;SDS011;9436;52.152;21.032;2023-02-26T07:43:49;1.90;;;1.53;;
18612;SDS011;9436;52.152;21.032;2023-02-26T07:46:18;2.37;;;1.70;;
18612;SDS011;9436;52.152;21.032;2023-02-26T07:48:45;2.17;;;1.80;;
18612;SDS011;9436;52.152;21.032;2023-02-26T07:51:12;1.90;;;1.70;;
18612;SDS011;9436;52.152;21.032;2023-02-26T07:53:39;1.70;;;1.43;;
18612;SDS011;9436;52.152;21.032;2023-02-26T07:56:06;4.13;;;1.90;;
18612;SDS011;9436;52.152;21.032;2023-02-26T07:58:33;2.73;;;1.73;;
18612;SDS011;9436;52.152;21.032;2023-02-26T08:01:00;2.00;;;1.80;;
18612;SDS011;9436;52.152;21.032;2023-02-26T08:03:29;2.03;;;1.80;;
18612;SDS011;9436;52.152;21.032;2023-02-26T08:05:57;2.57;;;1.87;;
18612;SDS011;9436;52.152;21.032;2023-02-26T08:08:25;1.77;;;1.67;;
18612;SDS011;9436;52.152;21.032;2023-02-26T08:10:52;1.73;;;1.63;;
18612;SDS011;9436;52.152;21.032;2023-02-26T08:13:19;2.33;;;1.60;;
18612;SDS011;9436;52.152;21.032;2023-02-26T08:15:46;1.67;;;1.57;;
18612;SDS011;9436;52.152;21.032;2023-02-26T08:18:13;1.70;;;1.60;;
18612;SDS011;9436;52.152;21.032;2023-02-26T08:20:42;1.60;;;1.50;;
18612;SDS011;9436;52.152;21.032;2023-02-26T08:23:09;1.73;;;1.63;;
18612;SDS011;9436;52.152;21.032;2023-02-26T08:25:36;1.73;;;1.60;;
18612;SDS011;9436;52.152;21.032;2023-02-26T08:28:04;1.80;;;1.70;;
18612;SDS011;9436;52.152;21.032;2023-02-26T08:30:31;2.20;;;2.00;;
18612;SDS011;9436;52.152;21.032;2023-02-26T08:32:58;2.23;;;1.70;;
18612;SDS011;9436;52.152;21.032;2023-02-26T08:35:25;2.63;;;2.00;;
18612;SDS011;9436;52.152;21.032;2023-02-26T08:37:53;2.30;;;2.10;;
18612;SDS011;9436;52.152;21.032;2023-02-26T08:40:21;2.83;;;2.20;;
18612;SDS011;9436;52.152;21.032;2023-02-26T08:42:48;3.20;;;2.00;;
18612;SDS011;9436;52.152;21.032;2023-02-26T08:45:15;1.87;;;1.73;;
18612;SDS011;9436;52.152;21.032;2023-02-26T08:47:42;2.07;;;1.80;;
18612;SDS011;9436;52.152;21.032;2023-02-26T08:50:10;2.07;;;1.60;;
18612;SDS011;9436;52.152;21.032;2023-02-26T08:52:37;2.73;;;1.70;;
18612;SDS011;9436;52.152;21.032;2023-02-26T08:55:06;2.60;;;2.00;;
18612;SDS011;9436;52.152;21.032;2023-02-26T08:57:34;1.40;;;1.30;;
18612;SDS011;9436;52.152;21.032;2023-02-26T09:00:01;1.83;;;1.53;;
18612;SDS011;9436;52.152;21.032;2023-02-26T09:02:29;1.80;;;1.67;;
18612;SDS011;9436;52.152;21.032;2023-02-26T09:04:57;1.73;;;1.20;;
18612;SDS011;9436;52.152;21.032;2023-02-26T09:07:24;1.53;;;1.43;;
18612;SDS011;9436;52.152;21.032;2023-02-26T09:09:51;2.07;;;1.87;;
18612;SDS011;9436;52.152;21.032;2023-02-26T09:12:19;2.10;;;1.63;;
18612;SDS011;9436;52.152;21.032;2023-02-26T09:14:46;1.87;;;1.57;;
18612;SDS011;9436;52.152;21.032;2023-02-26T09:17:13;2.00;;;1.50;;
18612;SDS011;9436;52.152;21.032;2023-02-26T09:19:40;1.57;;;1.33;;
18612;SDS011;9436;52.152;21.032;2023-02-26T09:22:07;2.23;;;1.80;;
18612;SDS011;9436;52.152;21.032;2023-02-26T09:24:34;1.53;;;1.43;;
18612;SDS011;9436;52.152;21.032;2023-02-26T09:27:01;1.80;;;1.60;;
18612;SDS011;9436;52.152;21.032;2023-02-26T09:29:30;1.60;;;1.50;;
18612;SDS011;9436;52.152;21.032;2023-02-26T09:31:57;1.60;;;1.50;;
18612;SDS011;9436;52.152;21.032;2023-02-26T09:34:24;1.73;;;1.40;;
18612;SDS011;9436;52.152;21.032;2023-02-26T09:36:51;1.50;;;1.40;;
18612;SDS011;9436;52.152;21.032;2023-02-26T09:39:18;1.60;;;1.50;;
18612;SDS011;9436;52.152;21.032;2023-02-26T09:41:46;1.77;;;1.50;;
18612;SDS011;9436;52.152;21.032;2023-02-26T09:44:16;1.30;;;1.20;;
18612;SDS011;9436;52.152;21.032;2023-02-26T09:46:50;4.20;;;1.67;;
18612;SDS011;9436;52.152;21.032;2023-02-26T09:49:26;1.73;;;1.60;;
18612;SDS011;9436;52.152;21.032;2023-02-26T09:51:59;2.03;;;1.43;;
18612;SDS011;9436;52.152;21.032;2023-02-26T09:54:33;1.63;;;1.53;;
18612;SDS011;9436;52.152;21.032;2023-02-26T09:57:08;1.70;;;1.60;;
18612;SDS011;9436;52.152;21.032;2023-02-26T09:59:40;1.73;;;1.53;;
18612;SDS011;9436;52.152;21.032;2023-02-26T10:02:11;1.50;;;1.40;;
18612;SDS011;9436;52.152;21.032;2023-02-26T10:04:48;1.70;;;1.50;;
18612;SDS011;9436;52.152;21.032;2023-02-26T10:07:22;1.87;;;1.70;;
18612;SDS011;9436;52.152;21.032;2023-02-26T10:10:08;1.80;;;1.70;;
18612;SDS011;9436;52.152;21.032;2023-02-26T10:12:43;2.37;;;1.80;;
18612;SDS011;9436;52.152;21.032;2023-02-26T10:15:12;1.90;;;1.80;;
18612;SDS011;9436;52.152;21.032;2023-02-26T10:17:51;2.30;;;1.70;;
18612;SDS011;9436;52.152;21.032;2023-02-26T10:20:26;2.23;;;1.90;;
18612;SDS011;9436;52.152;21.032;2023-02-26T10:22:58;2.20;;;1.90;;
18612;SDS011;9436;52.152;21.032;2023-02-26T10:25:32;2.33;;;2.10;;
18612;SDS011;9436;52.152;21.032;2023-02-26T10:28:04;2.10;;;1.90;;
18612;SDS011;9436;52.152;21.032;2023-02-26T10:30:43;3.20;;;2.47;;
18612;SDS011;9436;52.152;21.032;2023-02-26T10:33:18;2.43;;;2.20;;
18612;SDS011;9436;52.152;21.032;2023-02-26T10:35:55;2.93;;;2.20;;
18612;SDS011;9436;52.152;21.032;2023-02-26T10:38:28;2.53;;;2.30;;
18612;SDS011;9436;52.152;21.032;2023-02-26T10:40:58;2.63;;;2.40;;
18612;SDS011;9436;52.152;21.032;2023-02-26T10:43:29;2.23;;;2.00;;
18612;SDS011;9436;52.152;21.032;2023-02-26T10:46:07;2.70;;;2.50;;
18612;SDS011;9436;52.152;21.032;2023-02-26T10:48:48;2.53;;;2.33;;
18612;SDS011;9436;52.152;21.032;2023-02-26T10:51:28;2.33;;;2.13;;
18612;SDS011;9436;52.152;21.032;2023-02-26T10:54:02;2.43;;;2.23;;
18612;SDS011;9436;52.152;21.032;2023-02-26T10:56:38;2.80;;;2.53;;
18612;SDS011;9436;52.152;21.032;2023-02-26T10:59:05;2.90;;;2.47;;
18612;SDS011;9436;52.152;21.032;2023-02-26T11:01:32;3.60;;;2.47;;
18612;SDS011;9436;52.152;21.032;2023-02-26T11:04:02;2.83;;;2.43;;
18612;SDS011;9436;52.152;21.032;2023-02-26T11:06:32;2.80;;;2.60;;
18612;SDS011;9436;52.152;21.032;2023-02-26T11:09:03;2.90;;;2.60;;
18612;SDS011;9436;52.152;21.032;2023-02-26T11:11:40;3.33;;;2.97;;
18612;SDS011;9436;52.152;21.032;2023-02-26T11:14:11;3.63;;;2.70;;
18612;SDS011;9436;52.152;21.032;2023-02-26T11:16:44;3.33;;;2.37;;
18612;SDS011;9436;52.152;21.032;2023-02-26T11:19:15;2.80;;;2.50;;
18612;SDS011;9436;52.152;21.032;2023-02-26T11:21:45;3.43;;;2.50;;
18612;SDS011;9436;52.152;21.032;2023-02-26T11:24:15;3.20;;;2.90;;
18612;SDS011;9436;52.152;21.032;2023-02-26T11:26:47;3.33;;;2.13;;
18612;SDS011;9436;52.152;21.032;2023-02-26T11:29:17;2.13;;;1.77;;
18612;SDS011;9436;52.152;21.032;2023-02-26T11:31:49;2.10;;;1.90;;
18612;SDS011;9436;52.152;21.032;2023-02-26T11:34:22;1.97;;;1.77;;
18612;SDS011;9436;52.152;21.032;2023-02-26T11:36:50;2.27;;;1.60;;
18612;SDS011;9436;52.152;21.032;2023-02-26T11:39:21;2.13;;;1.70;;
18612;SDS011;9436;52.152;21.032;2023-02-26T11:41:52;1.67;;;1.57;;
18612;SDS011;9436;52.152;21.032;2023-02-26T11:44:24;2.10;;;1.73;;
18612;SDS011;9436;52.152;21.032;2023-02-26T11:46:57;1.50;;;1.40;;
18612;SDS011;9436;52.152;21.032;2023-02-26T11:49:31;1.67;;;1.50;;
18612;SDS011;9436;52.152;21.032;2023-02-26T11:52:05;1.97;;;1.60;;
18612;SDS011;9436;52.152;21.032;2023-02-26T11:54:44;1.87;;;1.60;;
18612;SDS011;9436;52.152;21.032;2023-02-26T11:57:14;2.00;;;1.57;;
18612;SDS011;9436;52.152;21.032;2023-02-26T11:59:43;3.13;;;1.80;;
18612;SDS011;9436;52.152;21.032;2023-02-26T12:02:13;3.20;;;1.63;;
18612;SDS011;9436;52.152;21.032;2023-02-26T12:04:45;1.67;;;1.47;;
18612;SDS011;9436;52.152;21.032;2023-02-26T12:07:16;2.47;;;1.60;;
18612;SDS011;9436;52.152;21.032;2023-02-26T12:09:44;2.63;;;1.60;;
18612;SDS011;9436;52.152;21.032;2023-02-26T12:12:18;2.90;;;1.70;;
18612;SDS011;9436;52.152;21.032;2023-02-26T12:14:59;1.50;;;1.40;;
18612;SDS011;9436;52.152;21.032;2023-02-26T12:17:42;1.80;;;1.60;;
18612;SDS011;9436;52.152;21.032;2023-02-26T12:20:20;1.90;;;1.60;;
18612;SDS011;9436;52.152;21.032;2023-02-26T12:22:58;1.73;;;1.63;;
18612;SDS011;9436;52.152;21.032;2023-02-26T12:25:47;2.33;;;1.87;;
18612;SDS011;9436;52.152;21.032;2023-02-26T12:28:37;2.17;;;1.97;;
18612;SDS011;9436;52.152;21.032;2023-02-26T12:31:36;2.13;;;1.93;;
18612;SDS011;9436;52.152;21.032;2023-02-26T12:34:26;2.00;;;1.83;;
18612;SDS011;9436;52.152;21.032;2023-02-26T12:37:19;3.27;;;2.17;;
18612;SDS011;9436;52.152;21.032;2023-02-26T12:40:02;2.20;;;2.00;;
18612;SDS011;9436;52.152;21.032;2023-02-26T12:42:40;2.27;;;2.00;;
18612;SDS011;9436;52.152;21.032;2023-02-26T12:45:19;2.80;;;1.83;;
18612;SDS011;9436;52.152;21.032;2023-02-26T12:48:03;2.83;;;2.13;;
18612;SDS011;9436;52.152;21.032;2023-02-26T12:50:53;2.63;;;1.90;;
18612;SDS011;9436;52.152;21.032;2023-02-26T12:56:30;4.27;;;2.17;;
18612;SDS011;9436;52.152;21.032;2023-02-26T12:59:19;3.03;;;2.40;;
18612;SDS011;9436;52.152;21.032;2023-02-26T13:01:58;2.23;;;2.03;;
18612;SDS011;9436;52.152;21.032;2023-02-26T13:04:54;2.80;;;1.87;;
18612;SDS011;9436;52.152;21.032;2023-02-26T13:07:49;2.20;;;1.90;;
18612;SDS011;9436;52.152;21.032;2023-02-26T13:10:28;1.97;;;1.73;;
18612;SDS011;9436;52.152;21.032;2023-02-26T13:13:09;3.17;;;1.70;;
18612;SDS011;9436;52.152;21.032;2023-02-26T13:15:56;1.77;;;1.40;;
18612;SDS011;9436;52.152;21.032;2023-02-26T13:18:35;2.27;;;1.87;;
18612;SDS011;9436;52.152;21.032;2023-02-26T13:21:10;2.27;;;1.70;;
18612;SDS011;9436;52.152;21.032;2023-02-26T13:23:42;1.30;;;1.20;;
18612;SDS011;9436;52.152;21.032;2023-02-26T13:26:15;2.37;;;1.40;;
18612;SDS011;9436;52.152;21.032;2023-02-26T13:28:46;1.30;;;1.07;;
18612;SDS011;9436;52.152;21.032;2023-02-26T13:31:19;2.17;;;1.30;;
18612;SDS011;9436;52.152;21.032;2023-02-26T13:33:50;1.40;;;1.10;;
18612;SDS011;9436;52.152;21.032;2023-02-26T13:36:21;1.87;;;1.27;;
18612;SDS011;9436;52.152;21.032;2023-02-26T13:38:56;3.47;;;1.33;;
18612;SDS011;9436;52.152;21.032;2023-02-26T13:41:39;2.20;;;1.17;;
18612;SDS011;9436;52.152;21.032;2023-02-26T13:44:23;2.83;;;1.23;;
18612;SDS011;9436;52.152;21.032;2023-02-26T13:49:52;2.77;;;1.60;;
18612;SDS011;9436;52.152;21.032;2023-02-26T13:52:26;3.83;;;1.70;;
18612;SDS011;9436;52.152;21.032;2023-02-26T13:54:56;3.30;;;1.93;;
18612;SDS011;9436;52.152;21.032;2023-02-26T13:57:35;2.90;;;1.57;;
18612;SDS011;9436;52.152;21.032;2023-02-26T14:00:10;2.03;;;1.47;;
18612;SDS011;9436;52.152;21.032;2023-02-26T14:02:52;2.50;;;1.47;;
18612;SDS011;9436;52.152;21.032;2023-02-26T14:08:41;2.50;;;1.50;;
18612;SDS011;9436;52.152;21.032;2023-02-26T14:17:17;2.27;;;1.27;;
18612;SDS011;9436;52.152;21.032;2023-02-26T14:22:41;2.87;;;1.50;;
18612;SDS011;9436;52.152;21.032;2023-02-26T14:25:13;2.40;;;1.60;;
18612;SDS011;9436;52.152;21.032;2023-02-26T14:27:47;2.20;;;1.47;;
18612;SDS011;9436;52.152;21.032;2023-02-26T14:30:17;3.23;;;1.63;;
18612;SDS011;9436;52.152;21.032;2023-02-26T14:32:54;3.50;;;1.40;;
18612;SDS011;9436;52.152;21.032;2023-02-26T14:35:33;1.43;;;1.20;;
18612;SDS011;9436;52.152;21.032;2023-02-26T14:38:03;3.67;;;1.50;;
18612;SDS011;9436;52.152;21.032;2023-02-26T14:40:35;2.53;;;1.60;;
18612;SDS011;9436;52.152;21.032;2023-02-26T14:43:05;3.67;;;1.73;;
18612;SDS011;9436;52.152;21.032;2023-02-26T14:45:40;4.03;;;1.50;;
18612;SDS011;9436;52.152;21.032;2023-02-26T14:48:11;3.37;;;1.40;;
18612;SDS011;9436;52.152;21.032;2023-02-26T14:50:42;2.03;;;1.33;;
18612;SDS011;9436;52.152;21.032;2023-02-26T14:56:32;2.53;;;1.57;;
18612;SDS011;9436;52.152;21.032;2023-02-26T15:02:12;2.63;;;1.80;;
18612;SDS011;9436;52.152;21.032;2023-02-26T15:04:52;2.13;;;1.50;;
18612;SDS011;9436;52.152;21.032;2023-02-26T15:07:40;2.30;;;1.60;;
18612;SDS011;9436;52.152;21.032;2023-02-26T15:10:17;1.90;;;1.30;;
18612;SDS011;9436;52.152;21.032;2023-02-26T15:12:56;2.83;;;1.90;;
18612;SDS011;9436;52.152;21.032;2023-02-26T15:15:40;2.00;;;1.40;;
18612;SDS011;9436;52.152;21.032;2023-02-26T15:18:21;3.23;;;1.50;;
18612;SDS011;9436;52.152;21.032;2023-02-26T15:21:10;1.90;;;1.50;;
18612;SDS011;9436;52.152;21.032;2023-02-26T15:23:42;2.83;;;1.60;;
18612;SDS011;9436;52.152;21.032;2023-02-26T15:26:14;5.73;;;1.73;;
18612;SDS011;9436;52.152;21.032;2023-02-26T15:28:44;4.10;;;1.63;;
18612;SDS011;9436;52.152;21.032;2023-02-26T15:31:13;2.23;;;1.73;;
18612;SDS011;9436;52.152;21.032;2023-02-26T15:33:42;4.20;;;2.00;;
18612;SDS011;9436;52.152;21.032;2023-02-26T15:36:11;4.17;;;1.87;;
18612;SDS011;9436;52.152;21.032;2023-02-26T15:38:46;2.90;;;1.90;;
18612;SDS011;9436;52.152;21.032;2023-02-26T15:41:15;4.23;;;1.90;;
18612;SDS011;9436;52.152;21.032;2023-02-26T15:43:45;4.17;;;2.37;;
18612;SDS011;9436;52.152;21.032;2023-02-26T15:46:14;4.07;;;2.00;;